sensor_id;sensor_type;location;lat;lon;timestamp;pressure;altitude;pressure_sealevel;temperature;humidity
14818;BME280;7500;57.698;11.986;2022-10-17T00:01:36;101893.53;;;15.18;100.00
14818;BME280;7500;57.698;11.986;2022-10-17T00:04:03;101885.53;;;15.18;100.00
14818;BME280;7500;57.698;11.986;2022-10-17T00:06:30;101895.25;;;15.36;100.00
14818;BME280;7500;57.698;11.986;2022-10-17T00:08:57;101903.06;;;15.39;100.00
14818;BME280;7500;57.698;11.986;2022-10-17T00:11:23;101900.19;;;15.44;100.00
14818;BME280;7500;57.698;11.986;2022-10-17T00:13:53;101894.13;;;15.40;100.00
14818;BME280;7500;57.698;11.986;2022-10-17T00:16:24;101899.94;;;15.31;100.00
14818;BME280;7500;57.698;11.986;2022-10-17T00:18:51;101899.94;;;15.31;100.00
14818;BME280;7500;57.698;11.986;2022-10-17T00:21:19;101895.88;;;15.24;100.00
14818;BME280;7500;57.698;11.986;2022-10-17T00:23:46;101893.53;;;15.18;100.00
14818;BME280;7500;57.698;11.986;2022-10-17T00:26:14;101907.59;;;15.20;100.00
14818;BME280;7500;57.698;11.986;2022-10-17T00:28:41;101906.88;;;15.17;100.00
14818;BME280;7500;57.698;11.986;2022-10-17T00:31:08;101898.22;;;15.13;100.00
14818;BME280;7500;57.698;11.986;2022-10-17T00:33:36;101900.88;;;15.13;100.00
14818;BME280;7500;57.698;11.986;2022-10-17T00:36:05;101907.03;;;15.14;100.00
14818;BME280;7500;57.698;11.986;2022-10-17T00:38:32;101922.84;;;15.17;100.00
14818;BME280;7500;57.698;11.986;2022-10-17T00:41:00;101926.38;;;15.17;100.00
14818;BME280;7500;57.698;11.986;2022-10-17T00:43:26;101923.09;;;15.12;100.00
14818;BME280;7500;57.698;11.986;2022-10-17T00:45:54;101931.22;;;15.09;100.00
14818;BME280;7500;57.698;11.986;2022-10-17T00:48:23;101920.44;;;15.12;100.00
14818;BME280;7500;57.698;11.986;2022-10-17T00:50:52;101929.34;;;15.11;100.00
14818;BME280;7500;57.698;11.986;2022-10-17T00:53:19;101937.97;;;15.16;100.00
14818;BME280;7500;57.698;11.986;2022-10-17T00:55:48;101934.53;;;15.14;100.00
14818;BME280;7500;57.698;11.986;2022-10-17T00:58:17;101930.84;;;15.00;100.00
14818;BME280;7500;57.698;11.986;2022-10-17T01:00:45;101943.44;;;15.13;100.00
14818;BME280;7500;57.698;11.986;2022-10-17T01:03:13;101943.13;;;15.19;100.00
14818;BME280;7500;57.698;11.986;2022-10-17T01:05:41;101951.13;;;15.19;100.00
14818;BME280;7500;57.698;11.986;2022-10-17T01:08:10;101945.09;;;14.99;100.00
14818;BME280;7500;57.698;11.986;2022-10-17T01:10:44;101948.38;;;15.04;100.00
14818;BME280;7500;57.698;11.986;2022-10-17T01:13:22;101951.09;;;15.02;100.00
14818;BME280;7500;57.698;11.986;2022-10-17T01:15:59;101947.88;;;15.13;100.00
14818;BME280;7500;57.698;11.986;2022-10-17T01:18:41;101951.13;;;15.19;100.00
14818;BME280;7500;57.698;11.986;2022-10-17T01:21:42;101946.88;;;15.15;100.00
14818;BME280;7500;57.698;11.986;2022-10-17T01:24:32;101956.84;;;15.12;100.00
14818;BME280;7500;57.698;11.986;2022-10-17T01:27:42;101958.38;;;15.16;100.00
14818;BME280;7500;57.698;11.986;2022-10-17T01:33:23;101964.41;;;15.19;100.00
14818;BME280;7500;57.698;11.986;2022-10-17T01:35:57;101958.38;;;15.16;100.00
14818;BME280;7500;57.698;11.986;2022-10-17T01:38:30;101959.94;;;15.03;100.00
14818;BME280;7500;57.698;11.986;2022-10-17T01:41:02;101953.91;;;14.99;100.00
14818;BME280;7500;57.698;11.986;2022-10-17T01:43:35;101953.53;;;15.07;100.00
14818;BME280;7500;57.698;11.986;2022-10-17T01:46:09;101953.13;;;14.97;100.00
14818;BME280;7500;57.698;11.986;2022-10-17T01:48:42;101951.25;;;14.99;100.00
14818;BME280;7500;57.698;11.986;2022-10-17T01:51:14;101965.81;;;14.92;100.00
14818;BME280;7500;57.698;11.986;2022-10-17T01:53:51;101956.13;;;14.91;100.00
14818;BME280;7500;57.698;11.986;2022-10-17T01:56:21;101962.38;;;14.90;100.00
14818;BME280;7500;57.698;11.986;2022-10-17T01:58:55;101965.72;;;14.94;100.00
14818;BME280;7500;57.698;11.986;2022-10-17T02:01:23;101961.97;;;14.98;100.00
14818;BME280;7500;57.698;11.986;2022-10-17T02:03:54;101971.44;;;14.86;100.00
14818;BME280;7500;57.698;11.986;2022-10-17T02:06:22;101973.06;;;14.89;100.00
14818;BME280;7500;57.698;11.986;2022-10-17T02:08:50;101984.50;;;14.91;100.00
14818;BME280;7500;57.698;11.986;2022-10-17T02:11:19;101986.44;;;14.87;100.00
14818;BME280;7500;57.698;11.986;2022-10-17T02:14:03;101994.28;;;14.90;100.00
14818;BME280;7500;57.698;11.986;2022-10-17T02:16:41;101988.22;;;14.87;100.00
14818;BME280;7500;57.698;11.986;2022-10-17T02:19:33;101998.75;;;14.71;100.00
14818;BME280;7500;57.698;11.986;2022-10-17T02:22:09;102002.19;;;14.73;100.00
14818;BME280;7500;57.698;11.986;2022-10-17T02:24:44;102004.34;;;14.84;100.00
14818;BME280;7500;57.698;11.986;2022-10-17T02:27:15;102008.50;;;14.89;100.00
14818;BME280;7500;57.698;11.986;2022-10-17T02:29:46;102004.44;;;14.82;100.00
14818;BME280;7500;57.698;11.986;2022-10-17T02:32:18;102010.38;;;14.87;100.00
14818;BME280;7500;57.698;11.986;2022-10-17T02:34:50;102002.59;;;14.83;100.00
14818;BME280;7500;57.698;11.986;2022-10-17T02:37:22;101998.97;;;14.85;100.00
14818;BME280;7500;57.698;11.986;2022-10-17T02:39:50;102001.91;;;14.79;100.00
14818;BME280;7500;57.698;11.986;2022-10-17T02:42:20;101978.56;;;14.68;100.00
14818;BME280;7500;57.698;11.986;2022-10-17T02:44:49;102009.59;;;14.85;100.00
14818;BME280;7500;57.698;11.986;2022-10-17T02:47:20;102003.09;;;14.91;100.00
14818;BME280;7500;57.698;11.986;2022-10-17T02:49:52;102005.28;;;14.83;100.00
14818;BME280;7500;57.698;11.986;2022-10-17T02:52:25;102005.22;;;14.84;100.00
14818;BME280;7500;57.698;11.986;2022-10-17T02:54:57;102014.13;;;14.83;100.00
14818;BME280;7500;57.698;11.986;2022-10-17T02:57:28;102020.44;;;14.81;100.00
14818;BME280;7500;57.698;11.986;2022-10-17T02:59:57;102022.41;;;14.77;100.00
14818;BME280;7500;57.698;11.986;2022-10-17T03:02:25;102020.16;;;14.68;100.00
14818;BME280;7500;57.698;11.986;2022-10-17T03:04:53;102013.88;;;14.71;100.00
14818;BME280;7500;57.698;11.986;2022-10-17T03:07:20;102029.66;;;14.74;100.00
14818;BME280;7500;57.698;11.986;2022-10-17T03:09:47;102029.53;;;14.77;100.00
14818;BME280;7500;57.698;11.986;2022-10-17T03:12:14;102029.59;;;14.75;100.00
14818;BME280;7500;57.698;11.986;2022-10-17T03:14:41;102030.50;;;14.74;100.00
14818;BME280;7500;57.698;11.986;2022-10-17T03:17:07;102048.19;;;14.75;100.00
14818;BME280;7500;57.698;11.986;2022-10-17T03:19:34;102053.50;;;14.75;100.00
14818;BME280;7500;57.698;11.986;2022-10-17T03:22:02;102053.59;;;14.74;100.00
14818;BME280;7500;57.698;11.986;2022-10-17T03:24:29;102056.16;;;14.75;100.00
14818;BME280;7500;57.698;11.986;2022-10-17T03:26:56;102058.91;;;14.74;100.00
14818;BME280;7500;57.698;11.986;2022-10-17T03:29:23;102050.00;;;14.75;100.00
14818;BME280;7500;57.698;11.986;2022-10-17T03:31:50;102065.03;;;14.76;100.00
14818;BME280;7500;57.698;11.986;2022-10-17T03:34:17;102064.28;;;14.72;100.00
14818;BME280;7500;57.698;11.986;2022-10-17T03:36:44;102058.31;;;14.68;100.00
14818;BME280;7500;57.698;11.986;2022-10-17T03:39:12;102060.97;;;14.68;100.00
14818;BME280;7500;57.698;11.986;2022-10-17T03:41:39;102060.31;;;14.63;100.00
14818;BME280;7500;57.698;11.986;2022-10-17T03:44:05;102058.91;;;14.56;100.00
14818;BME280;7500;57.698;11.986;2022-10-17T03:46:32;102054.53;;;14.55;100.00
14818;BME280;7500;57.698;11.986;2022-10-17T03:48:59;102050.63;;;14.62;100.00
14818;BME280;7500;57.698;11.986;2022-10-17T03:51:26;102052.94;;;14.69;100.00
14818;BME280;7500;57.698;11.986;2022-10-17T03:53:53;102049.34;;;14.70;100.00
14818;BME280;7500;57.698;11.986;2022-10-17T03:56:23;102050.19;;;14.70;100.00
14818;BME280;7500;57.698;11.986;2022-10-17T03:58:50;102060.69;;;14.73;100.00
14818;BME280;7500;57.698;11.986;2022-10-17T04:01:18;102061.56;;;14.74;100.00
14818;BME280;7500;57.698;11.986;2022-10-17T04:03:48;102066.00;;;14.73;100.00
14818;BME280;7500;57.698;11.986;2022-10-17T04:06:16;102065.16;;;14.73;100.00
14818;BME280;7500;57.698;11.986;2022-10-17T04:08:42;102063.44;;;14.72;100.00
14818;BME280;7500;57.698;11.986;2022-10-17T04:11:13;102075.84;;;14.71;100.00
14818;BME280;7500;57.698;11.986;2022-10-17T04:13:42;102084.72;;;14.72;100.00
14818;BME280;7500;57.698;11.986;2022-10-17T04:16:12;102078.38;;;14.74;100.00
14818;BME280;7500;57.698;11.986;2022-10-17T04:18:39;102084.63;;;14.73;100.00
14818;BME280;7500;57.698;11.986;2022-10-17T04:21:06;102086.91;;;14.63;100.00
14818;BME280;7500;57.698;11.986;2022-10-17T04:23:34;102087.72;;;14.65;100.00
14818;BME280;7500;57.698;11.986;2022-10-17T04:26:01;102094.75;;;14.66;100.00
14818;BME280;7500;57.698;11.986;2022-10-17T04:28:29;102080.66;;;14.64;100.00
14818;BME280;7500;57.698;11.986;2022-10-17T04:31:00;102092.31;;;14.61;100.00
14818;BME280;7500;57.698;11.986;2022-10-17T04:33:27;102086.28;;;14.58;100.00
14818;BME280;7500;57.698;11.986;2022-10-17T04:35:55;102084.72;;;14.54;100.00
14818;BME280;7500;57.698;11.986;2022-10-17T04:38:22;102032.19;;;14.22;100.00
14818;BME280;7500;57.698;11.986;2022-10-17T04:40:49;102080.03;;;14.59;100.00
14818;BME280;7500;57.698;11.986;2022-10-17T04:43:15;102088.72;;;14.62;100.00
14818;BME280;7500;57.698;11.986;2022-10-17T04:45:42;102094.75;;;14.66;100.00
14818;BME280;7500;57.698;11.986;2022-10-17T04:48:11;102102.09;;;14.61;100.00
14818;BME280;7500;57.698;11.986;2022-10-17T04:50:37;102101.94;;;14.64;100.00
14818;BME280;7500;57.698;11.986;2022-10-17T04:53:04;102105.31;;;14.67;100.00
14818;BME280;7500;57.698;11.986;2022-10-17T04:55:36;102103.03;;;14.60;100.00
14818;BME280;7500;57.698;11.986;2022-10-17T04:58:03;102111.84;;;14.60;100.00
14818;BME280;7500;57.698;11.986;2022-10-17T05:00:30;102107.25;;;14.64;100.00
14818;BME280;7500;57.698;11.986;2022-10-17T05:02:57;102103.97;;;14.59;100.00
14818;BME280;7500;57.698;11.986;2022-10-17T05:05:26;102113.59;;;14.61;100.00
14818;BME280;7500;57.698;11.986;2022-10-17T05:07:52;102125.50;;;14.53;100.00
14818;BME280;7500;57.698;11.986;2022-10-17T05:10:19;102134.53;;;14.49;100.00
14818;BME280;7500;57.698;11.986;2022-10-17T05:12:46;102129.22;;;14.49;100.00
14818;BME280;7500;57.698;11.986;2022-10-17T05:15:13;102123.84;;;14.50;100.00
14818;BME280;7500;57.698;11.986;2022-10-17T05:17:40;102113.84;;;14.55;100.00
14818;BME280;7500;57.698;11.986;2022-10-17T05:20:08;102112.50;;;14.47;100.00
14818;BME280;7500;57.698;11.986;2022-10-17T05:22:36;102121.91;;;14.54;100.00
14818;BME280;7500;57.698;11.986;2022-10-17T05:25:04;102114.59;;;14.59;100.00
14818;BME280;7500;57.698;11.986;2022-10-17T05:27:31;102118.06;;;14.61;100.00
14818;BME280;7500;57.698;11.986;2022-10-17T05:29:58;102111.78;;;14.62;100.00
14818;BME280;7500;57.698;11.986;2022-10-17T05:32:25;102115.31;;;14.62;100.00
14818;BME280;7500;57.698;11.986;2022-10-17T05:34:52;102106.75;;;14.56;100.00
14818;BME280;7500;57.698;11.986;2022-10-17T05:37:19;102112.06;;;14.56;100.00
14818;BME280;7500;57.698;11.986;2022-10-17T05:39:47;102111.28;;;14.54;100.00
14818;BME280;7500;57.698;11.986;2022-10-17T05:42:13;102113.00;;;14.55;100.00
14818;BME280;7500;57.698;11.986;2022-10-17T05:44:40;102116.16;;;14.44;100.00
14818;BME280;7500;57.698;11.986;2022-10-17T05:47:07;102119.53;;;14.48;100.00
14818;BME280;7500;57.698;11.986;2022-10-17T05:49:34;102123.91;;;14.49;100.00
14818;BME280;7500;57.698;11.986;2022-10-17T05:52:01;102128.44;;;14.47;100.00
14818;BME280;7500;57.698;11.986;2022-10-17T05:54:28;102131.38;;;14.41;100.00
14818;BME280;7500;57.698;11.986;2022-10-17T05:56:56;102141.84;;;14.44;100.00
14818;BME280;7500;57.698;11.986;2022-10-17T05:59:24;102131.22;;;14.44;100.00
14818;BME280;7500;57.698;11.986;2022-10-17T06:01:51;102112.63;;;14.44;100.00
14818;BME280;7500;57.698;11.986;2022-10-17T06:04:18;102128.88;;;14.56;100.00
14818;BME280;7500;57.698;11.986;2022-10-17T06:06:45;102127.16;;;14.55;100.00
14818;BME280;7500;57.698;11.986;2022-10-17T06:09:12;102132.41;;;14.57;100.00
14818;BME280;7500;57.698;11.986;2022-10-17T06:11:39;102134.41;;;14.52;100.00
14818;BME280;7500;57.698;11.986;2022-10-17T06:14:07;102141.31;;;14.56;100.00
14818;BME280;7500;57.698;11.986;2022-10-17T06:16:34;102143.97;;;14.56;100.00
14818;BME280;7500;57.698;11.986;2022-10-17T06:19:01;102145.63;;;14.58;100.00
14818;BME280;7500;57.698;11.986;2022-10-17T06:21:28;102153.53;;;14.60;100.00
14818;BME280;7500;57.698;11.986;2022-10-17T06:23:54;102124.72;;;14.51;100.00
14818;BME280;7500;57.698;11.986;2022-10-17T06:26:21;102145.47;;;14.61;100.00
14818;BME280;7500;57.698;11.986;2022-10-17T06:28:48;102143.03;;;14.57;100.00
14818;BME280;7500;57.698;11.986;2022-10-17T06:31:16;102156.38;;;14.55;100.00
14818;BME280;7500;57.698;11.986;2022-10-17T06:33:43;102167.16;;;14.52;100.00
14818;BME280;7500;57.698;11.986;2022-10-17T06:36:12;102163.56;;;14.53;100.00
14818;BME280;7500;57.698;11.986;2022-10-17T06:38:39;102170.56;;;14.56;100.00
14818;BME280;7500;57.698;11.986;2022-10-17T06:41:09;102172.19;;;14.58;100.00
14818;BME280;7500;57.698;11.986;2022-10-17T06:43:38;102171.22;;;14.61;100.00
14818;BME280;7500;57.698;11.986;2022-10-17T06:46:05;102164.31;;;14.57;100.00
14818;BME280;7500;57.698;11.986;2022-10-17T06:48:34;102172.19;;;14.58;100.00
14818;BME280;7500;57.698;11.986;2022-10-17T06:51:01;102161.84;;;14.52;100.00
14818;BME280;7500;57.698;11.986;2022-10-17T06:53:30;102168.03;;;14.53;100.00
14818;BME280;7500;57.698;11.986;2022-10-17T06:55:57;102176.66;;;14.58;100.00
14818;BME280;7500;57.698;11.986;2022-10-17T06:58:27;102179.47;;;14.55;100.00
14818;BME280;7500;57.698;11.986;2022-10-17T07:00:57;102175.66;;;14.60;100.00
14818;BME280;7500;57.698;11.986;2022-10-17T07:03:24;102169.31;;;14.63;100.00
14818;BME280;7500;57.698;11.986;2022-10-17T07:05:53;102173.69;;;14.64;100.00
14818;BME280;7500;57.698;11.986;2022-10-17T07:08:20;102177.28;;;14.63;100.00
14818;BME280;7500;57.698;11.986;2022-10-17T07:10:47;102185.28;;;14.63;100.00
14818;BME280;7500;57.698;11.986;2022-10-17T07:13:14;102200.50;;;14.59;100.00
14818;BME280;7500;57.698;11.986;2022-10-17T07:15:41;102189.97;;;14.58;100.00
14818;BME280;7500;57.698;11.986;2022-10-17T07:18:08;102194.38;;;14.57;100.00
14818;BME280;7500;57.698;11.986;2022-10-17T07:20:35;102194.47;;;14.56;100.00
14818;BME280;7500;57.698;11.986;2022-10-17T07:23:04;102200.06;;;14.50;100.00
14818;BME280;7500;57.698;11.986;2022-10-17T07:25:31;102206.22;;;14.50;100.00
14818;BME280;7500;57.698;11.986;2022-10-17T07:27:58;102205.25;;;14.53;100.00
14818;BME280;7500;57.698;11.986;2022-10-17T07:30:26;102200.72;;;14.55;100.00
14818;BME280;7500;57.698;11.986;2022-10-17T07:32:53;102209.34;;;14.60;100.00
14818;BME280;7500;57.698;11.986;2022-10-17T07:35:20;102219.81;;;14.63;100.00
14818;BME280;7500;57.698;11.986;2022-10-17T07:37:47;102222.50;;;14.63;100.00
14818;BME280;7500;57.698;11.986;2022-10-17T07:40:15;102230.47;;;14.63;100.00
14818;BME280;7500;57.698;11.986;2022-10-17T07:42:42;102235.72;;;14.64;100.00
14818;BME280;7500;57.698;11.986;2022-10-17T07:45:09;102220.91;;;14.59;100.00
14818;BME280;7500;57.698;11.986;2022-10-17T07:47:36;102214.00;;;14.55;100.00
14818;BME280;7500;57.698;11.986;2022-10-17T07:50:04;102220.13;;;14.57;100.00
14818;BME280;7500;57.698;11.986;2022-10-17T07:52:31;102228.22;;;14.54;100.00
14818;BME280;7500;57.698;11.986;2022-10-17T07:54:58;102231.56;;;14.59;100.00
14818;BME280;7500;57.698;11.986;2022-10-17T07:57:26;102230.53;;;14.61;100.00
14818;BME280;7500;57.698;11.986;2022-10-17T07:59:53;102232.28;;;14.62;100.00
14818;BME280;7500;57.698;11.986;2022-10-17T08:02:23;102229.53;;;14.64;100.00
14818;BME280;7500;57.698;11.986;2022-10-17T08:04:50;102220.63;;;14.65;100.00
14818;BME280;7500;57.698;11.986;2022-10-17T08:07:17;102182.25;;;14.52;100.00
14818;BME280;7500;57.698;11.986;2022-10-17T08:09:45;102210.88;;;14.65;100.00
14818;BME280;7500;57.698;11.986;2022-10-17T08:12:13;102206.63;;;14.61;100.00
14818;BME280;7500;57.698;11.986;2022-10-17T08:14:41;102207.47;;;14.62;100.00
14818;BME280;7500;57.698;11.986;2022-10-17T08:17:09;102210.00;;;14.65;100.00
14818;BME280;7500;57.698;11.986;2022-10-17T08:19:37;102217.78;;;14.69;100.00
14818;BME280;7500;57.698;11.986;2022-10-17T08:22:05;102216.63;;;14.74;100.00
14818;BME280;7500;57.698;11.986;2022-10-17T08:24:32;102214.75;;;14.76;100.00
14818;BME280;7500;57.698;11.986;2022-10-17T08:26:58;102204.66;;;14.65;100.00
14818;BME280;7500;57.698;11.986;2022-10-17T08:29:26;102205.69;;;14.62;100.00
14818;BME280;7500;57.698;11.986;2022-10-17T08:31:54;102205.47;;;14.67;100.00
14818;BME280;7500;57.698;11.986;2022-10-17T08:34:21;102208.88;;;14.70;100.00
14818;BME280;7500;57.698;11.986;2022-10-17T08:36:48;102211.41;;;14.73;100.00
14818;BME280;7500;57.698;11.986;2022-10-17T08:39:15;102214.34;;;14.85;100.00
14818;BME280;7500;57.698;11.986;2022-10-17T08:41:50;102206.53;;;14.82;100.00
14818;BME280;7500;57.698;11.986;2022-10-17T08:44:28;102194.94;;;14.83;100.00
14818;BME280;7500;57.698;11.986;2022-10-17T08:47:03;102197.47;;;14.86;100.00
14818;BME280;7500;57.698;11.986;2022-10-17T08:49:38;102197.19;;;14.92;100.00
14818;BME280;7500;57.698;11.986;2022-10-17T08:52:16;102197.66;;;15.00;100.00
14818;BME280;7500;57.698;11.986;2022-10-17T08:54:46;102211.44;;;14.91;100.00
14818;BME280;7500;57.698;11.986;2022-10-17T08:57:15;102202.97;;;14.82;100.00
14818;BME280;7500;57.698;11.986;2022-10-17T08:59:43;102201.72;;;14.90;100.00
14818;BME280;7500;57.698;11.986;2022-10-17T09:02:23;102210.50;;;14.92;100.00
14818;BME280;7500;57.698;11.986;2022-10-17T09:05:08;102212.00;;;14.98;100.00
14818;BME280;7500;57.698;11.986;2022-10-17T09:07:45;102213.94;;;14.94;100.00
14818;BME280;7500;57.698;11.986;2022-10-17T09:10:20;102209.25;;;14.99;100.00
14818;BME280;7500;57.698;11.986;2022-10-17T09:12:57;102205.59;;;15.02;100.00
14818;BME280;7500;57.698;11.986;2022-10-17T09:15:48;102197.41;;;15.06;100.00
14818;BME280;7500;57.698;11.986;2022-10-17T09:18:23;102206.97;;;15.10;100.00
14818;BME280;7500;57.698;11.986;2022-10-17T09:20:53;102188.47;;;15.07;100.00
14818;BME280;7500;57.698;11.986;2022-10-17T09:23:24;102185.97;;;15.04;100.00
14818;BME280;7500;57.698;11.986;2022-10-17T09:25:54;102182.31;;;15.07;100.00
14818;BME280;7500;57.698;11.986;2022-10-17T09:28:24;102189.13;;;15.12;100.00
14818;BME280;7500;57.698;11.986;2022-10-17T09:30:56;102186.47;;;15.12;100.00
14818;BME280;7500;57.698;11.986;2022-10-17T09:33:27;102175.69;;;15.15;100.00
14818;BME280;7500;57.698;11.986;2022-10-17T09:35:56;102184.31;;;15.20;100.00
14818;BME280;7500;57.698;11.986;2022-10-17T09:38:28;102173.59;;;15.22;100.00
14818;BME280;7500;57.698;11.986;2022-10-17T09:40:59;102171.06;;;15.19;100.00
14818;BME280;7500;57.698;11.986;2022-10-17T09:43:27;102170.88;;;15.23;100.00
14818;BME280;7500;57.698;11.986;2022-10-17T09:46:01;102167.19;;;15.26;100.00
14818;BME280;7500;57.698;11.986;2022-10-17T09:48:37;102166.34;;;15.25;100.00
14818;BME280;7500;57.698;11.986;2022-10-17T09:51:06;102156.97;;;15.17;100.00
14818;BME280;7500;57.698;11.986;2022-10-17T09:53:36;102155.84;;;15.22;100.00
14818;BME280;7500;57.698;11.986;2022-10-17T09:56:07;102126.44;;;15.07;100.00
14818;BME280;7500;57.698;11.986;2022-10-17T09:58:40;102151.22;;;15.26;100.00
14818;BME280;7500;57.698;11.986;2022-10-17T10:01:19;102139.94;;;15.21;100.00
14818;BME280;7500;57.698;11.986;2022-10-17T10:03:48;102134.69;;;15.19;100.00
14818;BME280;7500;57.698;11.986;2022-10-17T10:06:17;102123.41;;;15.14;100.00
14818;BME280;7500;57.698;11.986;2022-10-17T10:08:49;102126.56;;;15.22;100.00
14818;BME280;7500;57.698;11.986;2022-10-17T10:11:18;102113.13;;;15.25;100.00
14818;BME280;7500;57.698;11.986;2022-10-17T10:13:48;102112.47;;;15.20;100.00
14818;BME280;7500;57.698;11.986;2022-10-17T10:16:20;102108.94;;;15.20;100.00
14818;BME280;7500;57.698;11.986;2022-10-17T10:18:49;102109.72;;;15.22;100.00
14818;BME280;7500;57.698;11.986;2022-10-17T10:21:18;102119.53;;;15.21;100.00
14818;BME280;7500;57.698;11.986;2022-10-17T10:24:02;102112.28;;;15.06;100.00
14818;BME280;7500;57.698;11.986;2022-10-17T10:26:34;102118.31;;;15.10;100.00
14818;BME280;7500;57.698;11.986;2022-10-17T10:29:05;102113.50;;;14.99;100.00
14818;BME280;7500;57.698;11.986;2022-10-17T10:31:35;102119.25;;;15.09;100.00
14818;BME280;7500;57.698;11.986;2022-10-17T10:34:15;102106.81;;;15.09;100.00
14818;BME280;7500;57.698;11.986;2022-10-17T10:36:48;102112.81;;;15.13;100.00
14818;BME280;7500;57.698;11.986;2022-10-17T10:39:31;102099.06;;;15.05;100.00
14818;BME280;7500;57.698;11.986;2022-10-17T10:41:59;102100.06;;;15.02;100.00
14818;BME280;7500;57.698;11.986;2022-10-17T10:44:29;102090.50;;;14.98;100.00
14818;BME280;7500;57.698;11.986;2022-10-17T10:47:08;102081.72;;;14.96;100.00
14818;BME280;7500;57.698;11.986;2022-10-17T10:49:42;102085.75;;;15.05;100.00
14818;BME280;7500;57.698;11.986;2022-10-17T10:52:12;102073.53;;;15.01;100.00
14818;BME280;7500;57.698;11.986;2022-10-17T10:54:47;102088.19;;;15.09;100.00
14818;BME280;7500;57.698;11.986;2022-10-17T10:57:19;102081.22;;;15.07;100.00
14818;BME280;7500;57.698;11.986;2022-10-17T10:59:53;102085.38;;;15.12;100.00
14818;BME280;7500;57.698;11.986;2022-10-17T11:02:26;102086.00;;;15.17;100.00
14818;BME280;7500;57.698;11.986;2022-10-17T11:05:00;102084.94;;;15.21;100.00
14818;BME280;7500;57.698;11.986;2022-10-17T11:07:30;102079.47;;;15.24;100.00
14818;BME280;7500;57.698;11.986;2022-10-17T11:10:05;102080.13;;;15.29;100.00
14818;BME280;7500;57.698;11.986;2022-10-17T11:12:36;102074.81;;;15.29;100.00
14818;BME280;7500;57.698;11.986;2022-10-17T11:15:13;102065.88;;;15.30;100.00
14818;BME280;7500;57.698;11.986;2022-10-17T11:17:47;102052.75;;;15.27;100.00
14818;BME280;7500;57.698;11.986;2022-10-17T11:20:24;102052.75;;;15.27;100.00
14818;BME280;7500;57.698;11.986;2022-10-17T11:22:55;102051.97;;;15.24;100.00
14818;BME280;7500;57.698;11.986;2022-10-17T11:25:32;102042.28;;;15.23;100.00
14818;BME280;7500;57.698;11.986;2022-10-17T11:28:00;102044.00;;;15.24;100.00
14818;BME280;7500;57.698;11.986;2022-10-17T11:30:42;102031.72;;;15.21;100.00
14818;BME280;7500;57.698;11.986;2022-10-17T11:35:44;102027.25;;;15.22;100.00
14818;BME280;7500;57.698;11.986;2022-10-17T11:38:17;102015.75;;;15.21;100.00
14818;BME280;7500;57.698;11.986;2022-10-17T11:40:49;102002.50;;;15.20;100.00
14818;BME280;7500;57.698;11.986;2022-10-17T11:43:20;101990.09;;;15.20;100.00
14818;BME280;7500;57.698;11.986;2022-10-17T11:45:52;101991.41;;;15.12;100.00
14818;BME280;7500;57.698;11.986;2022-10-17T11:48:25;101998.75;;;15.07;100.00
14818;BME280;7500;57.698;11.986;2022-10-17T11:50:59;101988.28;;;15.04;100.00
14818;BME280;7500;57.698;11.986;2022-10-17T11:53:33;101977.69;;;15.02;100.00
14818;BME280;7500;57.698;11.986;2022-10-17T11:56:09;101965.34;;;15.01;100.00
14818;BME280;7500;57.698;11.986;2022-10-17T11:58:40;101972.38;;;15.02;100.00
14818;BME280;7500;57.698;11.986;2022-10-17T12:01:15;101974.03;;;15.05;100.00
14818;BME280;7500;57.698;11.986;2022-10-17T12:04:00;101970.81;;;14.98;100.00
14818;BME280;7500;57.698;11.986;2022-10-17T12:06:58;101907.81;;;14.65;100.00
14818;BME280;7500;57.698;11.986;2022-10-17T12:09:37;101971.75;;;14.97;100.00
14818;BME280;7500;57.698;11.986;2022-10-17T12:12:07;101949.31;;;15.03;100.00
14818;BME280;7500;57.698;11.986;2022-10-17T12:14:41;101936.63;;;14.91;100.00
14818;BME280;7500;57.698;11.986;2022-10-17T12:17:27;101926.44;;;14.82;100.00
14818;BME280;7500;57.698;11.986;2022-10-17T12:20:23;101924.34;;;14.88;100.00
14818;BME280;7500;57.698;11.986;2022-10-17T12:22:54;101919.97;;;14.87;100.00
14818;BME280;7500;57.698;11.986;2022-10-17T12:25:23;101912.34;;;14.80;100.00
14818;BME280;7500;57.698;11.986;2022-10-17T12:28:08;101912.75;;;14.72;100.00
14818;BME280;7500;57.698;11.986;2022-10-17T12:30:49;101912.06;;;14.69;100.00
14818;BME280;7500;57.698;11.986;2022-10-17T12:33:18;101918.06;;;14.72;100.00
14818;BME280;7500;57.698;11.986;2022-10-17T12:35:47;101919.72;;;14.75;100.00
14818;BME280;7500;57.698;11.986;2022-10-17T12:38:22;101914.56;;;14.72;100.00
14818;BME280;7500;57.698;11.986;2022-10-17T12:40:57;101909.09;;;14.75;100.00
14818;BME280;7500;57.698;11.986;2022-10-17T12:43:48;101890.16;;;14.64;100.00
14818;BME280;7500;57.698;11.986;2022-10-17T12:46:44;101877.25;;;14.57;100.00
14818;BME280;7500;57.698;11.986;2022-10-17T12:55:15;101847.34;;;14.35;100.00
14818;BME280;7500;57.698;11.986;2022-10-17T12:57:56;101830.94;;;14.27;100.00
14818;BME280;7500;57.698;11.986;2022-10-17T13:00:34;101812.00;;;14.33;100.00
14818;BME280;7500;57.698;11.986;2022-10-17T13:03:05;101799.38;;;14.38;100.00
14818;BME280;7500;57.698;11.986;2022-10-17T13:05:37;101783.03;;;14.45;100.00
14818;BME280;7500;57.698;11.986;2022-10-17T13:08:07;101782.97;;;14.47;100.00
14818;BME280;7500;57.698;11.986;2022-10-17T13:10:44;101779.38;;;14.48;100.00